Time;durP1;ratioP1;P1;durP2;ratioP2;P2;SDS_P1;SDS_P2;PMS_P1;PMS_P2;Temp;Humidity;BMP_temperature;BMP_pressure;BME280_temperature;BME280_humidity;BME280_pressure;Samples;Min_cycle;Max_cycle;Signal;HPM_P1;HPM_P2
2022/07/30 00:01:06;;;;;;;5.22;3.10;;;16.20;99.90;;;;;;5074874;28;20226;-79
2022/07/30 00:03:33;;;;;;;4.53;3.50;;;16.20;99.90;;;;;;5074274;28;20205;-79
2022/07/30 00:06:00;;;;;;;4.35;3.50;;;16.10;99.90;;;;;;5073758;28;20201;-79
2022/07/30 00:08:27;;;;;;;3.08;2.78;;;16.10;99.90;;;;;;5074718;28;20300;-80
2022/07/30 00:10:54;;;;;;;5.05;3.35;;;16.00;99.90;;;;;;5073734;28;20197;-79
2022/07/30 00:13:21;;;;;;;4.88;3.28;;;16.00;99.90;;;;;;5074238;28;20244;-80
2022/07/30 00:15:49;;;;;;;4.00;3.60;;;16.00;99.90;;;;;;5074141;28;20201;-79
2022/07/30 00:18:16;;;;;;;3.60;3.28;;;15.90;99.90;;;;;;5073686;28;20300;-79
2022/07/30 00:20:43;;;;;;;5.50;3.40;;;15.90;99.90;;;;;;5074078;28;20209;-79
2022/07/30 00:23:10;;;;;;;4.20;3.08;;;15.90;99.90;;;;;;5074455;28;20201;-79
2022/07/30 00:25:36;;;;;;;3.55;2.92;;;15.80;99.90;;;;;;5073541;28;20206;-80
2022/07/30 00:28:03;;;;;;;4.15;3.50;;;15.80;99.90;;;;;;5074006;28;20213;-79
2022/07/30 00:30:30;;;;;;;5.53;3.33;;;15.80;99.90;;;;;;5073535;28;20276;-79
2022/07/30 00:32:58;;;;;;;4.30;3.08;;;15.80;99.90;;;;;;5072824;28;20229;-80
2022/07/30 00:35:25;;;;;;;4.47;3.40;;;15.80;99.90;;;;;;5074240;28;20205;-79
2022/07/30 00:37:52;;;;;;;3.40;3.10;;;15.70;99.90;;;;;;5073543;28;20227;-80
2022/07/30 00:40:19;;;;;;;4.05;3.63;;;15.70;99.90;;;;;;5073014;28;20216;-80
2022/07/30 00:42:48;;;;;;;3.97;3.58;;;15.70;99.90;;;;;;5073127;28;20239;-80
2022/07/30 00:45:16;;;;;;;5.38;3.67;;;15.70;99.90;;;;;;5072648;28;20379;-79
2022/07/30 00:47:43;;;;;;;5.75;4.32;;;15.60;99.90;;;;;;5073574;28;20288;-80
2022/07/30 00:50:13;;;;;;;3.53;3.22;;;15.60;99.90;;;;;;5073332;28;20493;-80
2022/07/30 00:52:40;;;;;;;4.10;3.70;;;15.50;99.90;;;;;;5073069;28;20235;-80
2022/07/30 00:55:10;;;;;;;5.25;3.38;;;15.50;99.90;;;;;;5072861;28;20549;-79
2022/07/30 00:57:37;;;;;;;5.53;3.63;;;15.50;99.90;;;;;;5073241;28;20661;-78
2022/07/30 01:00:05;;;;;;;3.83;3.45;;;15.50;99.90;;;;;;5073291;28;20223;-79
2022/07/30 01:02:33;;;;;;;4.65;3.60;;;15.40;99.90;;;;;;5072768;28;20228;-80
2022/07/30 01:04:59;;;;;;;3.75;3.28;;;15.40;99.90;;;;;;5074321;28;20209;-80
2022/07/30 01:07:28;;;;;;;4.07;3.67;;;15.40;99.90;;;;;;5073683;28;20215;-79
2022/07/30 01:09:54;;;;;;;3.90;3.50;;;15.40;99.90;;;;;;5073671;28;20272;-79
2022/07/30 01:12:24;;;;;;;5.47;3.50;;;15.30;99.90;;;;;;5073461;28;20576;-79
2022/07/30 01:14:52;;;;;;;4.82;3.67;;;15.30;99.90;;;;;;5072383;28;20253;-79
2022/07/30 01:17:19;;;;;;;4.78;3.53;;;15.30;99.90;;;;;;5072996;28;20581;-79
2022/07/30 01:19:49;;;;;;;4.10;3.03;;;15.30;99.90;;;;;;5073170;28;20559;-80
2022/07/30 01:22:24;;;;;;;3.55;3.20;;;15.30;99.90;;;;;;5072376;28;20232;-80
2022/07/30 01:24:58;;;;;;;4.68;3.60;;;15.20;99.90;;;;;;5071939;28;20209;-79
2022/07/30 01:27:29;;;;;;;5.05;3.38;;;15.30;99.90;;;;;;5072440;28;20193;-79
2022/07/30 01:29:59;;;;;;;3.70;3.05;;;15.30;99.90;;;;;;5072268;28;20192;-79
2022/07/30 01:32:27;;;;;;;4.93;3.45;;;15.30;99.90;;;;;;5072513;28;20511;-78
2022/07/30 01:34:56;;;;;;;3.20;2.83;;;15.30;99.90;;;;;;5073134;28;20309;-79
2022/07/30 01:37:25;;;;;;;6.30;3.25;;;15.20;99.90;;;;;;5072199;28;20288;-79
2022/07/30 01:39:53;;;;;;;4.82;3.08;;;15.20;99.90;;;;;;5085958;22;20232;-78
2022/07/30 01:42:22;;;;;;;4.72;3.10;;;15.20;99.90;;;;;;5092176;28;20197;-78
2022/07/30 01:44:50;;;;;;;5.80;3.40;;;15.20;99.90;;;;;;5090228;28;20201;-80
2022/07/30 01:47:19;;;;;;;4.15;3.00;;;15.20;99.90;;;;;;5072576;28;20197;-79
2022/07/30 01:49:48;;;;;;;3.38;3.03;;;15.20;99.90;;;;;;5071768;28;20196;-80
2022/07/30 01:52:16;;;;;;;3.83;3.33;;;15.20;99.90;;;;;;5072622;28;20204;-79
2022/07/30 01:54:45;;;;;;;5.05;3.78;;;15.20;99.90;;;;;;5072343;28;20221;-78
2022/07/30 01:57:13;;;;;;;5.88;3.85;;;15.20;99.90;;;;;;5072370;28;20197;-79
2022/07/30 01:59:44;;;;;;;6.57;3.05;;;15.20;99.90;;;;;;5072153;28;20207;-78
2022/07/30 02:02:12;;;;;;;5.45;3.78;;;15.20;99.90;;;;;;5072622;28;20235;-79
2022/07/30 02:04:39;;;;;;;6.93;4.00;;;15.20;99.90;;;;;;5071793;28;20223;-80
2022/07/30 02:07:14;;;;;;;4.72;3.30;;;15.30;99.90;;;;;;5071873;28;20280;-79
2022/07/30 02:09:48;;;;;;;6.35;3.45;;;15.30;99.90;;;;;;5071980;28;20195;-78
2022/07/30 02:12:28;;;;;;;4.88;3.42;;;15.30;99.90;;;;;;5071648;28;20205;-79
2022/07/30 02:15:00;;;;;;;5.95;3.72;;;15.30;99.90;;;;;;5072001;28;20221;-79
2022/07/30 02:17:35;;;;;;;3.30;3.00;;;15.30;99.90;;;;;;5072301;28;20292;-79
2022/07/30 02:20:03;;;;;;;3.97;3.20;;;15.30;99.90;;;;;;5071733;28;20511;-79
2022/07/30 02:22:34;;;;;;;5.15;3.17;;;15.30;99.90;;;;;;5072358;28;20197;-79
2022/07/30 02:25:03;;;;;;;3.15;2.85;;;15.20;99.90;;;;;;5071440;28;20211;-79
2022/07/30 02:27:33;;;;;;;7.45;4.03;;;15.20;99.90;;;;;;5072120;28;20193;-80
2022/07/30 02:30:02;;;;;;;5.20;3.90;;;15.20;99.90;;;;;;5071466;28;20670;-78
2022/07/30 02:32:35;;;;;;;6.53;3.28;;;15.20;99.90;;;;;;5071229;28;20288;-78
2022/07/30 02:35:09;;;;;;;3.97;3.28;;;15.20;99.90;;;;;;5072115;28;20653;-79
2022/07/30 02:37:38;;;;;;;5.88;3.35;;;15.20;99.90;;;;;;5071565;28;20508;-78
2022/07/30 02:40:06;;;;;;;5.03;3.90;;;15.20;99.90;;;;;;5070836;28;20236;-77
2022/07/30 02:42:33;;;;;;;5.07;3.55;;;15.10;99.90;;;;;;5071954;28;20281;-78
2022/07/30 02:45:01;;;;;;;3.92;3.08;;;15.10;99.90;;;;;;5071766;28;20274;-77
2022/07/30 02:47:29;;;;;;;4.32;3.38;;;15.10;99.90;;;;;;5071330;28;20193;-77
2022/07/30 02:50:00;;;;;;;5.15;3.67;;;15.10;99.90;;;;;;5071968;28;20502;-78
2022/07/30 02:52:28;;;;;;;4.70;3.47;;;15.10;99.90;;;;;;5071733;28;20266;-77
2022/07/30 02:54:57;;;;;;;3.90;3.47;;;15.00;99.90;;;;;;5070746;28;20225;-77
2022/07/30 02:57:24;;;;;;;3.60;3.17;;;15.00;99.90;;;;;;5071537;28;20197;-78
2022/07/30 02:59:53;;;;;;;4.68;3.30;;;15.00;99.90;;;;;;5071206;28;20281;-78
2022/07/30 03:02:22;;;;;;;5.20;3.92;;;15.00;99.90;;;;;;5071529;28;20201;-78
2022/07/30 03:04:50;;;;;;;4.88;3.40;;;14.90;99.90;;;;;;5071986;28;20194;-78
2022/07/30 03:07:20;;;;;;;4.95;3.38;;;14.90;99.90;;;;;;5071139;28;20193;-78
2022/07/30 03:09:47;;;;;;;4.40;3.30;;;14.90;99.90;;;;;;5075595;28;20254;-78
2022/07/30 03:12:15;;;;;;;3.13;2.55;;;14.80;99.90;;;;;;5075351;28;20292;-80
2022/07/30 03:14:42;;;;;;;3.10;2.72;;;14.80;99.90;;;;;;5074486;28;20552;-78
2022/07/30 03:17:12;;;;;;;3.45;3.15;;;14.80;99.90;;;;;;5075255;28;20288;-80
2022/07/30 03:19:41;;;;;;;5.82;3.85;;;14.80;99.90;;;;;;5075441;28;20211;-78
2022/07/30 03:22:09;;;;;;;4.43;3.55;;;14.80;99.90;;;;;;5074493;28;20632;-80
2022/07/30 03:24:40;;;;;;;5.05;4.55;;;14.80;99.90;;;;;;5075168;28;20201;-78
2022/07/30 03:27:08;;;;;;;4.97;2.97;;;14.80;99.90;;;;;;5075314;28;20285;-77
2022/07/30 03:29:37;;;;;;;3.97;3.20;;;14.80;99.90;;;;;;5079140;28;20208;-79
2022/07/30 03:32:05;;;;;;;4.10;2.97;;;14.80;99.90;;;;;;5088872;28;20204;-79
2022/07/30 03:34:33;;;;;;;4.85;2.88;;;14.80;99.90;;;;;;5093328;28;20236;-79
2022/07/30 03:37:01;;;;;;;3.85;2.97;;;14.80;99.90;;;;;;5092550;28;20525;-80
2022/07/30 03:39:28;;;;;;;3.55;3.00;;;14.80;99.90;;;;;;5093293;28;20220;-80
2022/07/30 03:41:57;;;;;;;4.72;3.45;;;14.90;99.90;;;;;;5092221;28;20212;-80
2022/07/30 03:44:24;;;;;;;4.22;3.03;;;14.90;99.90;;;;;;5092034;28;20513;-79
2022/07/30 03:46:52;;;;;;;3.78;3.38;;;14.90;99.90;;;;;;5080817;28;20625;-78
2022/07/30 03:49:21;;;;;;;3.40;3.10;;;14.90;99.90;;;;;;5073861;28;20507;-81
2022/07/30 03:51:49;;;;;;;3.67;3.30;;;14.90;99.90;;;;;;5074901;28;20272;-80
2022/07/30 03:54:16;;;;;;;4.45;3.13;;;14.90;99.90;;;;;;5074479;28;20724;-80
2022/07/30 03:56:44;;;;;;;4.82;2.80;;;14.90;99.90;;;;;;5073578;28;20231;-80
2022/07/30 03:59:13;;;;;;;3.50;2.60;;;14.90;99.90;;;;;;5074487;28;20625;-80
2022/07/30 04:01:40;;;;;;;3.50;3.15;;;14.90;99.90;;;;;;5074366;28;20201;-80
2022/07/30 04:04:08;;;;;;;3.97;3.28;;;14.90;99.90;;;;;;5074054;28;20194;-80
2022/07/30 04:06:38;;;;;;;4.05;3.38;;;14.90;99.90;;;;;;5074142;28;20209;-81
2022/07/30 04:09:06;;;;;;;4.00;3.15;;;14.90;99.90;;;;;;5074482;28;20189;-80
2022/07/30 04:11:33;;;;;;;6.50;3.50;;;14.90;99.90;;;;;;5073985;28;20192;-80
2022/07/30 04:14:00;;;;;;;6.75;4.07;;;14.90;99.90;;;;;;5074101;28;20275;-80
2022/07/30 04:16:36;;;;;;;6.03;3.25;;;15.00;99.90;;;;;;5074100;28;20204;-80
2022/07/30 04:19:08;;;;;;;3.83;3.10;;;15.00;99.90;;;;;;5073216;28;20197;-78
2022/07/30 04:21:37;;;;;;;4.82;3.47;;;15.00;99.90;;;;;;5074313;28;20189;-78
2022/07/30 04:24:06;;;;;;;5.63;3.00;;;15.10;99.90;;;;;;5073607;28;20801;-78
2022/07/30 04:26:36;;;;;;;4.85;3.28;;;15.10;99.90;;;;;;5074604;28;20224;-79
2022/07/30 04:29:05;;;;;;;4.55;2.97;;;15.10;99.90;;;;;;5074556;28;20197;-79
2022/07/30 04:31:34;;;;;;;4.25;3.00;;;15.10;99.90;;;;;;5073647;28;20194;-78
2022/07/30 04:34:01;;;;;;;2.83;2.63;;;15.10;99.90;;;;;;5073713;28;20224;-78
2022/07/30 04:36:29;;;;;;;3.28;2.92;;;15.20;99.90;;;;;;5073957;28;20212;-78
2022/07/30 04:38:56;;;;;;;5.43;4.00;;;15.20;99.90;;;;;;5072992;28;20640;-79
2022/07/30 04:41:23;;;;;;;6.10;3.47;;;15.30;99.90;;;;;;5073832;28;20232;-78
2022/07/30 04:43:50;;;;;;;4.47;3.63;;;15.30;99.90;;;;;;5073812;28;20221;-79
2022/07/30 04:46:17;;;;;;;6.15;3.20;;;15.40;99.90;;;;;;5073125;28;20197;-78
2022/07/30 04:48:46;;;;;;;4.07;3.10;;;15.40;99.90;;;;;;5073568;28;20194;-79
2022/07/30 04:51:18;;;;;;;5.60;3.28;;;15.50;99.90;;;;;;5072779;28;20288;-79
2022/07/30 04:53:46;;;;;;;3.88;3.10;;;15.50;99.90;;;;;;5072568;28;20227;-79
2022/07/30 04:56:15;;;;;;;8.10;3.42;;;15.60;99.90;;;;;;5073277;28;20208;-78
2022/07/30 04:58:42;;;;;;;3.15;2.70;;;15.70;99.90;;;;;;5073832;28;20209;-79
2022/07/30 05:01:09;;;;;;;3.95;2.70;;;15.80;99.90;;;;;;5072513;28;20483;-79
2022/07/30 05:03:38;;;;;;;5.07;2.78;;;15.80;99.90;;;;;;5073210;28;20585;-80
2022/07/30 05:06:10;;;;;;;3.13;2.85;;;15.90;99.90;;;;;;5073272;28;20193;-79
2022/07/30 05:08:38;;;;;;;5.05;2.85;;;16.00;99.90;;;;;;5073209;28;20483;-79
2022/07/30 05:11:05;;;;;;;4.95;3.17;;;16.00;99.90;;;;;;5073275;28;20304;-79
2022/07/30 05:13:32;;;;;;;6.55;3.22;;;16.10;99.90;;;;;;5072419;28;20201;-79
2022/07/30 05:15:59;;;;;;;5.85;3.10;;;16.20;99.90;;;;;;5072742;28;20225;-78
2022/07/30 05:18:26;;;;;;;3.92;2.60;;;16.30;99.90;;;;;;5072828;28;20232;-78
2022/07/30 05:20:53;;;;;;;4.68;2.67;;;16.40;99.90;;;;;;5072635;28;20213;-79
2022/07/30 05:23:21;;;;;;;5.97;2.40;;;16.50;99.90;;;;;;5073259;28;20201;-78
2022/07/30 05:25:48;;;;;;;2.65;2.45;;;16.60;99.90;;;;;;5073071;28;20291;-79
2022/07/30 05:28:15;;;;;;;6.65;2.67;;;16.70;99.90;;;;;;5072229;28;20201;-78
2022/07/30 05:30:42;;;;;;;6.78;2.30;;;16.70;99.90;;;;;;5072964;28;20203;-79
2022/07/30 05:33:09;;;;;;;3.22;2.30;;;16.80;99.90;;;;;;5073262;28;20197;-79
2022/07/30 05:35:35;;;;;;;4.25;1.90;;;16.90;99.90;;;;;;5071994;28;20216;-79
2022/07/30 05:38:03;;;;;;;5.10;2.70;;;17.00;99.90;;;;;;5072815;28;20323;-78
2022/07/30 05:40:31;;;;;;;4.03;2.30;;;17.10;99.90;;;;;;5072721;28;20233;-79
2022/07/30 05:42:58;;;;;;;4.95;2.40;;;17.20;99.90;;;;;;5071989;28;20212;-78
2022/07/30 05:45:24;;;;;;;4.35;1.80;;;17.20;99.90;;;;;;5072499;28;20200;-78
2022/07/30 05:47:51;;;;;;;2.67;2.03;;;17.40;99.90;;;;;;5072561;28;20209;-78
2022/07/30 05:50:20;;;;;;;3.22;1.80;;;17.40;99.90;;;;;;5071451;28;20288;-78
2022/07/30 05:52:48;;;;;;;3.35;1.67;;;17.50;99.90;;;;;;5073065;28;20208;-78
2022/07/30 05:55:15;;;;;;;2.33;1.90;;;17.50;99.90;;;;;;5072474;28;20221;-80
2022/07/30 05:57:43;;;;;;;5.20;2.10;;;17.60;99.90;;;;;;5071562;28;20216;-78
2022/07/30 06:00:12;;;;;;;6.38;2.50;;;17.70;99.90;;;;;;5078222;28;20205;-79
2022/07/30 06:02:39;;;;;;;3.90;1.70;;;17.90;99.90;;;;;;5072411;28;20201;-78
2022/07/30 06:05:07;;;;;;;3.95;2.10;;;18.10;99.90;;;;;;5073055;28;20193;-76
2022/07/30 06:07:34;;;;;;;2.10;1.70;;;18.20;99.90;;;;;;5080727;28;20304;-77
2022/07/30 06:10:01;;;;;;;4.00;1.70;;;18.20;99.90;;;;;;5081447;28;20209;-78
2022/07/30 06:12:29;;;;;;;2.95;1.75;;;18.10;99.50;;;;;;5077651;28;20376;-78
2022/07/30 06:14:58;;;;;;;2.08;1.58;;;18.30;91.20;;;;;;5077738;28;20300;-79
2022/07/30 06:17:25;;;;;;;4.22;1.90;;;18.40;73.10;;;;;;5074295;28;20200;-78
2022/07/30 06:19:52;;;;;;;2.88;1.77;;;18.70;59.50;;;;;;5072236;28;20287;-78
2022/07/30 06:22:19;;;;;;;3.05;1.90;;;19.00;50.50;;;;;;5071588;28;20233;-78
2022/07/30 06:24:46;;;;;;;4.30;1.60;;;19.30;25.80;;;;;;5070719;28;20207;-78
2022/07/30 06:27:13;;;;;;;4.35;1.73;;;19.60;1.00;;;;;;5071889;28;20203;-79
2022/07/30 06:29:39;;;;;;;3.83;1.60;;;19.70;99.90;;;;;;5071953;28;20201;-82
2022/07/30 06:32:08;;;;;;;3.05;1.25;;;19.70;25.70;;;;;;5071552;28;20197;-80
2022/07/30 06:34:34;;;;;;;2.65;1.42;;;19.70;1.00;;;;;;5071851;28;20232;-79
2022/07/30 06:37:01;;;;;;;2.97;1.27;;;19.70;1.00;;;;;;5071866;28;20235;-78
2022/07/30 06:39:28;;;;;;;2.30;1.20;;;19.70;99.90;;;;;;5070955;28;20752;-78
2022/07/30 06:41:55;;;;;;;1.98;1.30;;;19.90;99.90;;;;;;5071981;28;20276;-78
2022/07/30 06:44:22;;;;;;;1.98;1.30;;;20.10;1.00;;;;;;5070459;28;20208;-80
2022/07/30 06:46:49;;;;;;;3.28;1.20;;;20.20;1.00;;;;;;5071251;28;20258;-80
2022/07/30 06:49:17;;;;;;;2.45;1.30;;;20.50;99.90;;;;;;5071678;28;20197;-79
2022/07/30 06:51:44;;;;;;;2.78;1.48;;;20.70;1.00;;;;;;5075002;28;20692;-78
2022/07/30 06:54:11;;;;;;;2.60;1.02;;;20.90;1.00;;;;;;5086793;28;20615;-78
2022/07/30 06:56:38;;;;;;;5.47;1.55;;;21.10;1.00;;;;;;5091086;28;20226;-78
2022/07/30 06:59:05;;;;;;;1.88;1.10;;;21.30;1.00;;;;;;5087708;28;20291;-79
2022/07/30 07:01:32;;;;;;;2.67;1.42;;;21.60;1.00;;;;;;5091647;28;20239;-78
2022/07/30 07:03:59;;;;;;;3.08;1.33;;;21.90;99.90;;;;;;5091310;28;20208;-79
2022/07/30 07:06:27;;;;;;;2.47;1.10;;;22.10;99.90;;;;;;5089726;28;20228;-79
2022/07/30 07:08:54;;;;;;;2.45;1.10;;;22.30;99.90;;;;;;5082228;28;20608;-79
2022/07/30 07:11:21;;;;;;;3.40;1.25;;;22.50;20.00;;;;;;5078619;28;20210;-78
2022/07/30 07:13:48;;;;;;;5.60;2.03;;;22.70;1.00;;;;;;5090797;28;20236;-78
2022/07/30 07:16:15;;;;;;;1.83;1.10;;;22.90;1.00;;;;;;5088772;28;20221;-78
2022/07/30 07:18:42;;;;;;;2.15;1.10;;;23.20;1.00;;;;;;5085154;28;20295;-78
2022/07/30 07:21:09;;;;;;;2.65;1.20;;;23.40;1.00;;;;;;5090994;28;20544;-79
2022/07/30 07:23:37;;;;;;;2.60;1.50;;;23.70;1.00;;;;;;5092000;28;20239;-78
2022/07/30 07:26:04;;;;;;;2.30;1.02;;;23.90;1.00;;;;;;5071434;28;20201;-78
2022/07/30 07:28:30;;;;;;;2.67;1.27;;;24.10;99.90;;;;;;5070732;28;20185;-78
2022/07/30 07:30:57;;;;;;;2.53;1.25;;;24.20;99.90;;;;;;5071391;28;20229;-79
2022/07/30 07:33:24;;;;;;;2.72;1.20;;;24.50;99.90;;;;;;5071240;28;20204;-80
2022/07/30 07:35:53;;;;;;;1.95;1.17;;;24.70;99.90;;;;;;5070617;28;20636;-87
2022/07/30 07:38:20;;;;;;;1.90;1.08;;;24.60;99.90;;;;;;5072697;28;20213;-84
2022/07/30 07:40:48;;;;;;;2.55;1.10;;;24.80;99.90;;;;;;5072955;28;20241;-83
2022/07/30 07:43:15;;;;;;;2.65;1.00;;;24.90;99.90;;;;;;5073067;28;20205;-84
2022/07/30 07:45:43;;;;;;;2.53;1.13;;;25.00;99.90;;;;;;5088837;28;20208;-84
2022/07/30 07:48:10;;;;;;;2.95;1.25;;;24.90;99.90;;;;;;5082939;28;20211;-82
2022/07/30 07:50:37;;;;;;;2.40;1.15;;;25.00;99.90;;;;;;5083171;28;20584;-84
2022/07/30 07:53:05;;;;;;;2.17;0.95;;;25.10;99.90;;;;;;5086811;28;20201;-83
2022/07/30 07:55:32;;;;;;;1.70;1.13;;;25.20;99.90;;;;;;5088581;28;21016;-87
2022/07/30 07:58:01;;;;;;;2.33;1.20;;;25.30;99.90;;;;;;5088246;28;20205;-87
2022/07/30 08:00:28;;;;;;;4.13;1.33;;;25.50;99.90;;;;;;5096232;28;20211;-85
2022/07/30 08:02:55;;;;;;;3.13;1.10;;;25.70;99.90;;;;;;5095434;28;20283;-83
2022/07/30 08:05:22;;;;;;;8.13;1.67;;;25.80;99.90;;;;;;5095447;28;20232;-83
2022/07/30 08:07:49;;;;;;;2.15;1.05;;;25.90;99.90;;;;;;5094289;28;20192;-82
2022/07/30 08:10:16;;;;;;;1.88;1.15;;;26.00;99.90;;;;;;5095063;28;20192;-84
2022/07/30 08:12:43;;;;;;;1.35;1.05;;;26.10;99.90;;;;;;5095560;28;20238;-84
2022/07/30 08:15:12;;;;;;;1.95;1.10;;;25.80;99.90;;;;;;5076925;28;20309;-84
2022/07/30 08:17:42;;;;;;;2.42;1.00;;;26.00;99.90;;;;;;5074839;28;20194;-83
2022/07/30 08:20:11;;;;;;;2.25;1.02;;;26.20;99.90;;;;;;5075212;28;20280;-82
2022/07/30 08:22:38;;;;;;;0.90;0.75;;;26.20;99.90;;;;;;5075101;28;20209;-83
2022/07/30 08:25:06;;;;;;;3.00;1.25;;;26.40;99.90;;;;;;5074278;28;20197;-82
2022/07/30 08:27:33;;;;;;;1.85;1.00;;;26.50;99.90;;;;;;5074770;28;20201;-83
2022/07/30 08:30:04;;;;;;;2.60;1.17;;;26.50;99.90;;;;;;5074889;28;20202;-83
2022/07/30 08:32:32;;;;;;;1.55;0.90;;;26.40;99.90;;;;;;5074931;28;20201;-81
2022/07/30 08:34:59;;;;;;;3.15;0.95;;;26.30;99.90;;;;;;5075021;28;20228;-81
2022/07/30 08:37:26;;;;;;;2.15;1.15;;;26.30;99.90;;;;;;5074281;28;20189;-82
2022/07/30 08:39:52;;;;;;;2.80;1.27;;;26.30;99.90;;;;;;5074778;28;20237;-81
2022/07/30 08:42:19;;;;;;;1.42;0.80;;;26.40;99.90;;;;;;5074841;28;20236;-81
2022/07/30 08:44:47;;;;;;;2.33;1.27;;;26.70;99.90;;;;;;5074691;28;20232;-85
2022/07/30 08:47:17;;;;;;;2.35;0.90;;;26.90;99.90;;;;;;5075146;28;20280;-83
2022/07/30 08:49:46;;;;;;;1.33;0.88;;;27.00;99.90;;;;;;5074967;28;20206;-82
2022/07/30 08:52:14;;;;;;;2.60;1.20;;;27.20;99.90;;;;;;5073103;28;20295;-82
2022/07/30 08:54:41;;;;;;;3.78;1.10;;;27.40;99.90;;;;;;5074911;28;20197;-82
2022/07/30 08:57:08;;;;;;;2.05;0.90;;;27.50;99.90;;;;;;5074664;28;20304;-83
2022/07/30 08:59:36;;;;;;;1.45;1.08;;;27.40;99.90;;;;;;5073033;28;20589;-81
2022/07/30 09:02:03;;;;;;;1.77;0.90;;;27.70;99.90;;;;;;5073899;28;20233;-83
2022/07/30 09:04:30;;;;;;;2.30;1.00;;;27.30;99.90;;;;;;5073933;28;20205;-79
2022/07/30 09:06:58;;;;;;;1.73;1.00;;;27.20;99.90;;;;;;5072523;28;20276;-82
2022/07/30 09:09:25;;;;;;;0.98;0.90;;;27.30;99.90;;;;;;5073400;28;20297;-80
2022/07/30 09:11:52;;;;;;;3.03;1.10;;;27.40;99.90;;;;;;5073528;28;20228;-83
2022/07/30 09:14:19;;;;;;;2.88;0.90;;;27.40;99.90;;;;;;5072430;28;20272;-79
2022/07/30 09:16:46;;;;;;;2.75;0.90;;;27.40;99.90;;;;;;5073928;28;20224;-84
2022/07/30 09:19:15;;;;;;;2.25;1.00;;;27.40;99.90;;;;;;5073590;28;20243;-80
2022/07/30 09:21:43;;;;;;;1.27;0.80;;;27.50;99.90;;;;;;5072279;28;20205;-80
2022/07/30 09:24:12;;;;;;;2.38;1.33;;;27.50;99.90;;;;;;5073462;28;20197;-79
2022/07/30 09:26:57;;;;;;;1.70;1.02;;;27.50;99.70;;;;;;5073228;28;20204;-84
2022/07/30 09:29:26;;;;;;;1.88;1.00;;;27.40;99.90;;;;;;5073863;28;20251;-84
2022/07/30 09:31:54;;;;;;;1.35;0.80;;;27.40;99.90;;;;;;5073960;28;20231;-83
2022/07/30 09:34:26;;;;;;;2.70;1.08;;;27.50;99.40;;;;;;5086267;28;20200;-87
2022/07/30 09:36:53;;;;;;;3.10;1.35;;;27.60;98.40;;;;;;5094040;28;20230;-83
2022/07/30 09:39:33;;;;;;;2.00;1.00;;;27.70;97.00;;;;;;5094930;28;20308;-85
2022/07/30 09:42:01;;;;;;;1.67;1.13;;;27.90;97.00;;;;;;5095269;28;20283;-86
2022/07/30 09:44:30;;;;;;;1.73;0.88;;;27.70;96.50;;;;;;5094566;28;20403;-83
2022/07/30 09:46:57;;;;;;;1.33;0.80;;;27.70;94.90;;;;;;5086272;28;20284;-87
2022/07/30 09:49:27;;;;;;;1.83;1.02;;;27.60;94.40;;;;;;5074024;28;20209;-83
2022/07/30 09:51:55;;;;;;;1.23;0.98;;;27.50;95.00;;;;;;5074767;28;20209;-86
2022/07/30 09:54:22;;;;;;;2.25;1.27;;;27.60;96.70;;;;;;5075405;28;20193;-82
2022/07/30 09:57:04;;;;;;;2.53;1.15;;;27.80;94.90;;;;;;5074022;28;20224;-81
2022/07/30 09:59:32;;;;;;;1.55;1.05;;;27.90;93.50;;;;;;5071779;28;20566;-82
2022/07/30 10:01:59;;;;;;;1.90;1.10;;;27.80;93.10;;;;;;5072213;28;20280;-83
2022/07/30 10:04:27;;;;;;;3.08;1.10;;;27.80;91.70;;;;;;5091490;28;20464;-83
2022/07/30 10:06:56;;;;;;;1.35;0.90;;;27.70;91.30;;;;;;5093499;28;20296;-82
2022/07/30 10:09:27;;;;;;;2.55;0.98;;;27.60;91.70;;;;;;5092215;28;20270;-83
2022/07/30 10:11:58;;;;;;;3.45;1.20;;;27.50;92.50;;;;;;5074919;28;20205;-85
2022/07/30 10:14:28;;;;;;;1.98;1.60;;;27.40;94.10;;;;;;5075455;28;20228;-84
2022/07/30 10:16:56;;;;;;;3.50;1.40;;;27.50;91.00;;;;;;5074047;28;20232;-84
2022/07/30 10:19:24;;;;;;;1.90;1.20;;;27.40;91.70;;;;;;5076042;28;20196;-83
2022/07/30 10:21:56;;;;;;;3.60;1.50;;;27.30;91.20;;;;;;5076595;28;20233;-84
2022/07/30 10:24:23;;;;;;;1.95;1.40;;;27.30;93.50;;;;;;5075080;28;20263;-84
2022/07/30 10:26:51;;;;;;;1.88;1.52;;;27.50;91.80;;;;;;5077046;28;20200;-84
2022/07/30 10:29:20;;;;;;;4.40;1.30;;;27.40;90.80;;;;;;5079128;28;20284;-85
2022/07/30 10:31:50;;;;;;;2.20;1.15;;;27.20;90.80;;;;;;5079377;28;20267;-83
2022/07/30 10:34:19;;;;;;;2.90;1.20;;;26.90;92.00;;;;;;5099271;28;20226;-84
2022/07/30 10:36:50;;;;;;;4.38;1.40;;;26.80;91.10;;;;;;5098587;28;20257;-83
2022/07/30 10:39:24;;;;;;;3.60;1.30;;;26.70;91.10;;;;;;5098463;28;20216;-87
2022/07/30 10:42:07;;;;;;;2.15;1.27;;;26.40;90.10;;;;;;5097394;28;20200;-83
2022/07/30 10:45:10;;;;;;;2.72;1.17;;;26.20;89.50;;;;;;5079866;28;20205;-85
2022/07/30 10:47:38;;;;;;;3.42;1.63;;;26.10;90.70;;;;;;5063030;28;20300;-84
2022/07/30 10:50:07;;;;;;;5.80;1.95;;;25.90;91.10;;;;;;5074721;28;20200;-83
2022/07/30 10:52:44;;;;;;;4.70;1.40;;;25.90;94.80;;;;;;5076750;28;20284;-83
2022/07/30 10:55:13;;;;;;;4.78;2.60;;;26.00;98.40;;;;;;5073418;28;20205;-83
2022/07/30 10:57:59;;;;;;;3.78;1.40;;;26.10;99.90;;;;;;5076810;28;20232;-85
2022/07/30 11:00:29;;;;;;;4.97;1.63;;;26.30;96.30;;;;;;5075639;28;20246;-86
2022/07/30 11:03:19;;;;;;;6.38;2.15;;;26.40;97.80;;;;;;5072681;28;20201;-82
2022/07/30 11:05:48;;;;;;;6.50;2.80;;;26.40;98.50;;;;;;5072199;28;20193;-84
2022/07/30 11:08:35;;;;;;;4.93;1.58;;;26.30;99.50;;;;;;5073789;28;20209;-84
2022/07/30 11:11:02;;;;;;;5.22;2.25;;;26.40;99.00;;;;;;5075097;28;20211;-84
2022/07/30 11:13:49;;;;;;;3.60;1.60;;;26.20;96.90;;;;;;5072898;28;20208;-84
2022/07/30 11:16:19;;;;;;;5.47;1.95;;;26.10;93.50;;;;;;5075359;28;20216;-83
2022/07/30 11:19:09;;;;;;;4.95;2.08;;;26.00;91.60;;;;;;5072916;28;20577;-83
2022/07/30 11:21:36;;;;;;;3.08;1.27;;;25.90;91.60;;;;;;5072862;28;20198;-85
2022/07/30 11:24:04;;;;;;;3.90;1.20;;;25.70;93.90;;;;;;5073932;28;20201;-84
2022/07/30 11:26:52;;;;;;;4.53;1.52;;;25.70;94.40;;;;;;5071944;28;20205;-84
2022/07/30 11:29:39;;;;;;;3.85;1.88;;;25.70;96.30;;;;;;5073817;28;20245;-82
2022/07/30 11:32:30;;;;;;;5.35;1.85;;;25.80;97.50;;;;;;5076289;28;20280;-83
2022/07/30 11:35:17;;;;;;;4.03;1.60;;;25.90;97.70;;;;;;5074838;28;20509;-84
2022/07/30 11:37:59;;;;;;;4.88;1.60;;;26.00;99.90;;;;;;5075894;28;20225;-82
2022/07/30 11:40:29;;;;;;;5.40;1.58;;;26.00;91.60;;;;;;5076062;28;20529;-84
2022/07/30 11:43:21;;;;;;;5.22;1.92;;;25.90;84.80;;;;;;5076373;28;20202;-84
2022/07/30 11:45:51;;;;;;;4.90;2.47;;;25.90;90.70;;;;;;5076369;28;20194;-83
2022/07/30 11:48:20;;;;;;;9.13;2.40;;;25.90;84.30;;;;;;5075218;28;20526;-83
2022/07/30 11:50:48;;;;;;;6.72;2.97;;;25.60;87.60;;;;;;5075839;28;20290;-80
2022/07/30 11:53:18;;;;;;;6.60;2.55;;;25.60;90.40;;;;;;5075140;28;20198;-84
2022/07/30 11:55:51;;;;;;;4.38;2.42;;;25.40;90.50;;;;;;5074236;28;20663;-83
2022/07/30 11:58:28;;;;;;;5.78;2.47;;;25.40;93.70;;;;;;5075302;28;20202;-83
2022/07/30 12:00:59;;;;;;;8.52;3.17;;;25.50;96.60;;;;;;5075129;28;20189;-82
2022/07/30 12:03:30;;;;;;;4.95;2.55;;;25.40;99.90;;;;;;5074512;28;20228;-83
2022/07/30 12:06:02;;;;;;;4.60;2.17;;;25.50;99.90;;;;;;5094972;28;20561;-83
2022/07/30 12:08:29;;;;;;;7.53;3.05;;;25.50;99.90;;;;;;5095106;28;20199;-84
2022/07/30 12:10:58;;;;;;;5.57;2.28;;;25.50;99.90;;;;;;5095682;28;20208;-82
2022/07/30 12:13:25;;;;;;;6.53;1.98;;;25.50;99.90;;;;;;5082519;28;20300;-81
2022/07/30 12:15:55;;;;;;;6.28;1.98;;;25.50;99.90;;;;;;5073870;28;20197;-81
2022/07/30 12:20:55;;;;;;;7.32;3.25;;;25.50;99.90;;;;;;5119697;22;20323;-85
2022/07/30 12:23:22;;;;;;;4.95;3.22;;;25.50;99.90;;;;;;5113656;28;20291;-81
2022/07/30 12:25:49;;;;;;;7.30;2.72;;;25.50;99.90;;;;;;5115486;27;20653;-84
2022/07/30 12:28:21;;;;;;;4.55;2.45;;;25.60;99.90;;;;;;5115655;28;20198;-82
2022/07/30 12:30:48;;;;;;;9.38;3.47;;;25.80;99.90;;;;;;5114005;28;20192;-81
2022/07/30 12:33:15;;;;;;;9.68;3.65;;;26.00;99.90;;;;;;5114834;28;20199;-82
2022/07/30 12:35:46;;;;;;;6.72;2.85;;;26.20;99.90;;;;;;5114722;28;20562;-79
2022/07/30 12:38:15;;;;;;;6.10;3.08;;;26.30;99.90;;;;;;5101325;28;20238;-84
2022/07/30 12:40:57;;;;;;;8.18;3.00;;;26.40;98.50;;;;;;5092706;28;20284;-81
2022/07/30 12:43:44;;;;;;;6.35;2.20;;;26.30;94.30;;;;;;5094122;28;20414;-81
2022/07/30 12:46:14;;;;;;;5.45;2.95;;;26.30;96.80;;;;;;5098066;28;20228;-82
2022/07/30 12:48:50;;;;;;;7.78;2.45;;;26.30;99.90;;;;;;5096224;28;20653;-82
2022/07/30 12:51:17;;;;;;;7.35;2.53;;;26.20;94.60;;;;;;5107085;28;20184;-82
2022/07/30 12:53:46;;;;;;;9.90;3.10;;;26.20;96.80;;;;;;5115794;28;20204;-81
2022/07/30 12:56:14;;;;;;;5.30;2.45;;;26.20;99.90;;;;;;5114369;28;20295;-81
2022/07/30 12:58:41;;;;;;;5.47;2.67;;;26.10;99.90;;;;;;5093957;28;20299;-83
2022/07/30 13:01:10;;;;;;;7.43;3.13;;;26.00;99.90;;;;;;5093663;28;20292;-81